Time;durP1;ratioP1;P1;durP2;ratioP2;P2;SDS_P1;SDS_P2;PMS_P1;PMS_P2;Temp;Humidity;BMP_temperature;BMP_pressure;BME280_temperature;BME280_humidity;BME280_pressure;Samples;Min_cycle;Max_cycle;Signal;HPM_P1;HPM_P2
2023/09/20 00:00:27;;;;;;;2.28;1.10;;;;;;;18.13;100.00;100153.53;4993309;28;20545;-73
2023/09/20 00:02:55;;;;;;;2.63;0.90;;;;;;;18.21;100.00;100132.34;4973481;28;20042;-72
2023/09/20 00:05:23;;;;;;;3.03;1.45;;;;;;;18.21;100.00;100129.66;4992929;28;20061;-72
2023/09/20 00:07:54;;;;;;;3.33;1.30;;;;;;;18.16;100.00;100138.06;4993815;28;20061;-72
2023/09/20 00:10:22;;;;;;;2.88;1.10;;;;;;;18.08;100.00;100134.34;4962038;28;20053;-73
2023/09/20 00:12:51;;;;;;;2.85;1.30;;;;;;;18.11;100.00;100136.72;4981183;28;20042;-75
2023/09/20 00:15:19;;;;;;;2.90;1.00;;;;;;;18.11;100.00;100137.59;4986242;28;20038;-73
2023/09/20 00:17:48;;;;;;;2.03;0.80;;;;;;;18.09;100.00;100136.88;4975615;28;20038;-72
2023/09/20 00:20:16;;;;;;;2.55;1.02;;;;;;;18.10;100.00;100145.78;4987779;28;20062;-74
2023/09/20 00:22:45;;;;;;;2.22;1.00;;;;;;;18.09;100.00;100147.59;5004826;28;20064;-73
2023/09/20 00:25:15;;;;;;;4.60;1.30;;;;;;;18.05;100.00;100145.28;4962227;28;20042;-72
2023/09/20 00:27:45;;;;;;;3.60;1.30;;;;;;;18.03;100.00;100144.56;4991646;28;20057;-73
2023/09/20 00:30:17;;;;;;;2.47;1.13;;;;;;;17.97;100.00;100145.06;4985554;28;20038;-71
2023/09/20 00:32:46;;;;;;;2.15;1.13;;;;;;;17.91;100.00;100137.53;4984251;28;20053;-72
2023/09/20 00:35:18;;;;;;;3.30;0.80;;;;;;;17.96;100.00;100138.84;4989441;28;20044;-72
2023/09/20 00:37:49;;;;;;;3.10;1.38;;;;;;;17.93;100.00;100138.28;4990267;28;20426;-73
2023/09/20 00:40:19;;;;;;;3.22;1.10;;;;;;;17.87;100.00;100143.13;4972594;28;20074;-73
2023/09/20 00:42:50;;;;;;;;;;;;;;;17.83;100.00;100135.47;4974031;28;20084;-72
2023/09/20 00:45:20;;;;;;;3.47;1.00;;;;;;;17.71;100.00;100140.00;4982762;28;19951;-72
2023/09/20 00:47:55;;;;;;;2.60;1.27;;;;;;;17.64;100.00;100136.09;4987126;28;20042;-71
2023/09/20 00:50:28;;;;;;;4.18;1.20;;;;;;;17.57;100.00;100144.72;4964725;28;20494;-74
2023/09/20 00:52:58;;;;;;;1.52;0.88;;;;;;;17.48;100.00;100138.25;4970913;28;20145;-75
2023/09/20 00:55:28;;;;;;;2.72;1.10;;;;;;;17.41;100.00;100137.91;4989859;28;20285;-73
2023/09/20 00:58:03;;;;;;;3.15;1.00;;;;;;;17.43;100.00;100145.81;4978713;28;20137;-78
2023/09/20 01:00:33;;;;;;;2.03;1.05;;;;;;;17.40;100.00;100148.75;4994047;28;20050;-73
2023/09/20 01:03:02;;;;;;;2.93;1.30;;;;;;;17.34;100.00;100150.06;4983976;28;20051;-73
2023/09/20 01:05:36;;;;;;;2.22;1.25;;;;;;;17.30;100.00;100151.31;4993387;28;20576;-75
2023/09/20 01:08:06;;;;;;;1.88;1.20;;;;;;;17.29;100.00;100154.09;4975133;28;20403;-72
2023/09/20 01:10:36;;;;;;;3.25;1.25;;;;;;;17.26;100.00;100151.66;4997412;28;20422;-76
2023/09/20 01:13:06;;;;;;;2.08;1.60;;;;;;;17.21;100.00;100151.16;4977272;28;20643;-76
2023/09/20 01:15:38;;;;;;;3.55;1.55;;;;;;;17.17;100.00;100153.22;4986448;28;20043;-72
2023/09/20 01:18:07;;;;;;;4.60;1.42;;;;;;;17.14;100.00;100145.44;4989250;28;20069;-72
2023/09/20 01:20:40;;;;;;;5.35;1.40;;;;;;;17.08;100.00;100137.88;4979104;28;20477;-73
2023/09/20 01:23:12;;;;;;;4.13;1.20;;;;;;;17.06;100.00;100145.19;4984972;28;20043;-77
2023/09/20 01:25:43;;;;;;;3.35;1.70;;;;;;;17.03;100.00;100142.72;4990006;28;20533;-75
2023/09/20 01:28:14;;;;;;;2.08;1.27;;;;;;;17.06;100.00;100151.38;4976144;28;20069;-74
2023/09/20 01:30:50;;;;;;;2.60;1.30;;;;;;;17.07;100.00;100149.56;4957309;28;20426;-74
2023/09/20 01:33:19;;;;;;;1.75;1.20;;;;;;;17.14;100.00;100148.13;4982923;28;20046;-76
2023/09/20 01:35:47;;;;;;;3.40;1.30;;;;;;;17.17;100.00;100148.72;4955485;28;20590;-74
2023/09/20 01:38:18;;;;;;;3.55;1.40;;;;;;;17.23;100.00;100141.19;4974011;28;20170;-77
2023/09/20 01:40:46;;;;;;;3.08;1.40;;;;;;;17.23;100.00;100151.88;4983165;28;20110;-72
2023/09/20 01:43:14;;;;;;;3.45;1.55;;;;;;;17.19;100.00;100135.22;4957617;28;20054;-74
2023/09/20 01:45:44;;;;;;;3.35;1.40;;;;;;;17.23;100.00;100146.53;4970266;28;20506;-73
2023/09/20 01:48:15;;;;;;;1.43;1.03;;;;;;;17.22;100.00;100148.34;4971535;28;20054;-75
2023/09/20 01:50:43;;;;;;;2.90;1.20;;;;;;;17.18;100.00;100145.06;4988693;28;20042;-72
2023/09/20 01:53:14;;;;;;;2.08;1.30;;;;;;;17.11;100.00;100143.84;4969623;28;20049;-76
2023/09/20 01:55:45;;;;;;;4.13;1.33;;;;;;;17.12;100.00;100139.34;4972046;28;20031;-73
2023/09/20 01:58:15;;;;;;;2.20;1.25;;;;;;;17.13;100.00;100125.00;4986922;28;20046;-71
2023/09/20 02:00:43;;;;;;;1.58;1.15;;;;;;;17.15;100.00;100129.28;4983099;28;20050;-72
2023/09/20 02:03:16;;;;;;;3.03;1.23;;;;;;;17.16;100.00;100122.91;4985909;28;20117;-74
2023/09/20 02:05:47;;;;;;;2.50;1.27;;;;;;;17.14;100.00;100121.38;4966828;28;20046;-74
2023/09/20 02:08:19;;;;;;;2.97;1.38;;;;;;;17.09;100.00;100121.72;4972530;28;20121;-74
2023/09/20 02:10:49;;;;;;;2.63;1.30;;;;;;;17.05;100.00;100112.22;4955401;28;20082;-73
2023/09/20 02:13:18;;;;;;;2.83;1.25;;;;;;;17.03;100.00;100107.97;4986248;28;20057;-74
2023/09/20 02:15:47;;;;;;;3.08;1.20;;;;;;;17.06;100.00;100110.41;4985383;28;20395;-73
2023/09/20 02:18:16;;;;;;;2.15;1.42;;;;;;;17.05;100.00;100109.53;4973060;28;20046;-74
2023/09/20 02:20:45;;;;;;;2.55;1.30;;;;;;;17.08;100.00;100117.34;4970066;28;20070;-72
2023/09/20 02:23:15;;;;;;;3.10;1.33;;;;;;;17.13;100.00;100115.16;4971490;28;20081;-78
2023/09/20 02:25:46;;;;;;;3.00;1.42;;;;;;;17.11;100.00;100105.53;4966405;28;20649;-73
2023/09/20 02:28:15;;;;;;;2.15;1.40;;;;;;;17.09;100.00;100118.19;4957833;28;20038;-73
2023/09/20 02:30:43;;;;;;;2.05;1.42;;;;;;;17.05;100.00;100109.53;4972834;28;20047;-72
2023/09/20 02:33:14;;;;;;;3.28;1.30;;;;;;;17.02;100.00;100112.44;4971264;28;20499;-74
2023/09/20 02:35:45;;;;;;;2.30;1.30;;;;;;;17.00;100.00;100113.56;4968917;28;20043;-73
2023/09/20 02:38:13;;;;;;;3.67;1.38;;;;;;;17.04;100.00;100121.22;4972779;28;20039;-77
2023/09/20 02:40:45;;;;;;;2.55;1.27;;;;;;;17.04;100.00;100118.53;4972426;28;20062;-73
2023/09/20 02:43:16;;;;;;;3.40;1.50;;;;;;;17.01;100.00;100108.06;4972358;28;20071;-78
2023/09/20 02:45:46;;;;;;;5.18;1.27;;;;;;;17.02;100.00;100107.09;4962773;28;20126;-72
2023/09/20 02:48:14;;;;;;;3.90;1.50;;;;;;;17.02;100.00;100112.44;4975701;28;20051;-72
2023/09/20 02:50:46;;;;;;;4.05;1.45;;;;;;;17.02;100.00;100100.91;4988631;28;20051;-73
2023/09/20 02:53:15;;;;;;;1.85;1.30;;;;;;;17.01;100.00;100102.72;4985776;28;20042;-72
2023/09/20 02:55:44;;;;;;;1.90;1.33;;;;;;;17.06;100.00;100103.22;4981788;28;20476;-73
2023/09/20 02:58:13;;;;;;;3.42;1.65;;;;;;;17.07;100.00;100099.56;4969446;28;20065;-72
2023/09/20 03:00:46;;;;;;;2.20;1.40;;;;;;;17.00;100.00;100101.00;4971616;28;20047;-73
2023/09/20 03:03:16;;;;;;;2.60;1.50;;;;;;;16.92;100.00;100095.44;4985382;28;20478;-80
2023/09/20 03:05:44;;;;;;;4.07;1.58;;;;;;;16.86;100.00;100087.88;4981360;28;20050;-73
2023/09/20 03:08:13;;;;;;;3.00;1.80;;;;;;;16.78;100.00;100093.81;4984595;28;20056;-75
2023/09/20 03:10:42;;;;;;;2.28;1.52;;;;;;;16.75;100.00;100088.72;4969051;28;20032;-73
2023/09/20 03:13:16;;;;;;;2.92;1.80;;;;;;;16.71;100.00;100081.88;4970489;28;20034;-72
2023/09/20 03:15:51;;;;;;;2.45;1.73;;;;;;;16.68;100.00;100079.47;4979362;28;20153;-72
2023/09/20 03:18:23;;;;;;;2.08;1.48;;;;;;;16.66;100.00;100084.09;4970911;28;20058;-73
2023/09/20 03:21:05;;;;;;;3.28;1.55;;;;;;;16.64;100.00;100091.38;4957011;28;20053;-74
2023/09/20 03:23:35;;;;;;;4.30;1.90;;;;;;;16.59;100.00;100073.94;4986153;28;20071;-72
2023/09/20 03:26:06;;;;;;;6.22;1.45;;;;;;;16.61;100.00;100080.88;4965653;28;20043;-75
2023/09/20 03:28:37;;;;;;;3.20;1.80;;;;;;;16.59;100.00;100080.13;4978525;28;20067;-71
2023/09/20 03:31:10;;;;;;;3.03;1.70;;;;;;;16.56;100.00;100071.50;4985361;28;20418;-73
2023/09/20 03:33:42;;;;;;;2.47;1.52;;;;;;;16.56;100.00;100082.19;4970378;28;20671;-72
2023/09/20 03:36:16;;;;;;;4.07;1.70;;;;;;;16.51;100.00;100065.66;4964228;28;20129;-71
2023/09/20 03:38:47;;;;;;;4.18;1.75;;;;;;;16.51;100.00;100071.88;4971096;28;20043;-72
2023/09/20 03:41:16;;;;;;;3.95;1.92;;;;;;;16.49;100.00;100071.97;4987745;28;20046;-78
2023/09/20 03:43:47;;;;;;;5.30;2.13;;;;;;;16.47;100.00;100060.56;4954957;28;20415;-76
2023/09/20 03:46:17;;;;;;;4.28;2.20;;;;;;;16.46;100.00;100061.53;4966022;28;20054;-71
2023/09/20 03:48:47;;;;;;;3.40;1.80;;;;;;;16.45;100.00;100053.63;4982685;28;20043;-75
2023/09/20 03:51:16;;;;;;;5.30;2.30;;;;;;;16.43;100.00;100066.25;4951152;28;20590;-73
2023/09/20 03:53:44;;;;;;;3.92;2.00;;;;;;;16.41;100.00;100063.69;4969301;28;20042;-72
2023/09/20 03:56:18;;;;;;;3.80;1.90;;;;;;;16.40;100.00;100061.13;4965948;28;20046;-78
2023/09/20 03:58:47;;;;;;;5.72;2.17;;;;;;;16.36;100.00;100055.19;4971657;28;20046;-73
2023/09/20 04:01:20;;;;;;;3.63;2.10;;;;;;;16.30;100.00;100044.09;4966200;28;20078;-72
2023/09/20 04:03:50;;;;;;;5.20;2.00;;;;;;;16.33;100.00;100050.06;4967569;28;20715;-71
2023/09/20 04:06:18;;;;;;;2.72;1.67;;;;;;;16.31;100.00;100045.81;4979437;28;20133;-72
2023/09/20 04:08:46;;;;;;;3.33;2.22;;;;;;;16.35;100.00;100052.63;4972000;28;20063;-72
2023/09/20 04:11:14;;;;;;;3.92;2.28;;;;;;;16.34;100.00;100048.25;4970615;28;20051;-73
2023/09/20 04:13:42;;;;;;;4.32;2.33;;;;;;;16.33;100.00;100051.88;4968819;28;20408;-74
2023/09/20 04:16:10;;;;;;;3.20;2.20;;;;;;;16.32;100.00;100059.06;4976614;28;20054;-72
2023/09/20 04:18:43;;;;;;;4.97;2.13;;;;;;;16.32;100.00;100056.38;4971523;28;20051;-73
2023/09/20 04:21:11;;;;;;;6.55;2.22;;;;;;;16.33;100.00;100068.78;4971161;28;20093;-75
2023/09/20 04:23:39;;;;;;;3.78;2.22;;;;;;;16.32;100.00;100064.41;4977319;28;20047;-72
2023/09/20 04:26:08;;;;;;;4.70;2.20;;;;;;;16.33;100.00;100054.56;4967754;28;20141;-75
2023/09/20 04:28:35;;;;;;;3.75;2.50;;;;;;;16.30;100.00;100049.44;4960272;28;20424;-72
2023/09/20 04:31:04;;;;;;;3.75;2.30;;;;;;;16.28;100.00;100057.56;4977920;28;20206;-77
2023/09/20 04:33:35;;;;;;;4.63;2.72;;;;;;;16.28;100.00;100062.06;4976691;28;20177;-72
2023/09/20 04:36:05;;;;;;;3.45;2.28;;;;;;;16.25;100.00;100059.63;4982605;28;20047;-72
2023/09/20 04:38:35;;;;;;;;;;;;;;;16.26;100.00;100056.84;4988719;28;20134;-80
2023/09/20 04:41:03;;;;;;;3.65;2.15;;;;;;;16.28;100.00;100057.56;4987997;28;19933;-74
2023/09/20 04:43:32;;;;;;;5.50;2.63;;;;;;;16.28;100.00;100048.69;4995958;28;20066;-76
2023/09/20 04:46:02;;;;;;;4.65;2.53;;;;;;;16.30;100.00;100055.66;4978303;28;20061;-72
2023/09/20 04:48:31;;;;;;;4.40;2.28;;;;;;;16.30;100.00;100058.31;4973637;28;20074;-74
2023/09/20 04:51:00;;;;;;;3.72;2.20;;;;;;;16.29;100.00;100059.28;4959539;28;20044;-73
2023/09/20 04:53:30;;;;;;;3.40;2.28;;;;;;;16.28;100.00;100046.88;4969527;28;20046;-73
2023/09/20 04:56:00;;;;;;;5.15;2.80;;;;;;;16.28;100.00;100052.22;4981446;28;20039;-74
2023/09/20 04:58:29;;;;;;;5.32;2.50;;;;;;;16.28;100.00;100057.56;4971603;28;20170;-75
2023/09/20 05:00:58;;;;;;;4.07;2.72;;;;;;;16.27;100.00;100055.00;4953848;28;20470;-73
2023/09/20 05:03:28;;;;;;;4.30;2.63;;;;;;;16.28;100.00;100062.06;5006550;28;20093;-72
2023/09/20 05:05:57;;;;;;;5.50;2.90;;;;;;;16.25;100.00;100060.47;4958069;28;20050;-72
2023/09/20 05:08:27;;;;;;;5.00;2.60;;;;;;;16.27;100.00;100063.03;4952887;28;20226;-73
2023/09/20 05:10:57;;;;;;;4.20;2.63;;;;;;;16.26;100.00;100070.19;4988182;28;20392;-73
2023/09/20 05:13:26;;;;;;;7.43;2.55;;;;;;;16.28;100.00;100065.59;4965036;28;20152;-73
2023/09/20 05:15:54;;;;;;;5.30;2.78;;;;;;;16.29;100.00;100064.63;4963914;28;20514;-73
2023/09/20 05:18:23;;;;;;;4.63;2.80;;;;;;;16.31;100.00;100059.16;4974234;28;20054;-72
2023/09/20 05:20:53;;;;;;;4.93;2.97;;;;;;;16.33;100.00;100055.41;4975556;28;20050;-74
2023/09/20 05:23:24;;;;;;;5.20;2.38;;;;;;;16.35;100.00;100063.31;4964452;28;20039;-73
2023/09/20 05:25:54;;;;;;;4.35;2.47;;;;;;;16.35;100.00;100057.97;4962640;28;20061;-73
2023/09/20 05:28:25;;;;;;;5.90;2.63;;;;;;;16.34;100.00;100053.59;4983564;28;20121;-72
2023/09/20 05:30:57;;;;;;;5.43;2.35;;;;;;;16.28;100.00;100052.22;4974591;28;20047;-75
2023/09/20 05:33:25;;;;;;;4.57;3.15;;;;;;;16.34;100.00;100064.28;4975965;28;20057;-73
2023/09/20 05:35:53;;;;;;;4.68;2.95;;;;;;;16.33;100.00;100058.09;4966935;28;20047;-72
2023/09/20 05:38:24;;;;;;;6.18;2.88;;;;;;;16.35;100.00;100058.81;4976612;28;20051;-73
2023/09/20 05:40:55;;;;;;;4.28;2.53;;;;;;;16.37;100.00;100061.38;4981991;28;20050;-73
2023/09/20 05:43:31;;;;;;;4.45;2.58;;;;;;;16.43;100.00;100061.75;4985061;28;20157;-71
2023/09/20 05:46:07;;;;;;;7.78;3.03;;;;;;;16.58;100.00;100058.88;4979391;28;20050;-72
2023/09/20 05:48:36;;;;;;;5.40;2.60;;;;;;;16.69;100.00;100061.59;4988779;28;20225;-77
2023/09/20 05:51:04;;;;;;;4.35;2.78;;;;;;;16.71;100.00;100039.09;4988617;28;20082;-82
2023/09/20 05:53:34;;;;;;;4.32;2.63;;;;;;;16.83;100.00;100034.66;5006921;28;20046;-73
2023/09/20 05:56:07;;;;;;;5.75;3.00;;;;;;;16.89;100.00;100050.19;4968356;28;20054;-77
2023/09/20 05:58:38;;;;;;;3.53;2.25;;;;;;;16.94;100.00;100061.41;4972404;28;20101;-76
2023/09/20 06:01:09;;;;;;;4.20;2.83;;;;;;;16.95;100.00;100051.53;4985503;28;20582;-72
2023/09/20 06:03:37;;;;;;;4.55;2.67;;;;;;;16.90;100.00;100053.72;4968171;28;20050;-71
2023/09/20 06:06:07;;;;;;;4.22;2.58;;;;;;;16.84;100.00;100049.72;4961559;28;20059;-73
2023/09/20 06:08:35;;;;;;;4.30;2.50;;;;;;;16.89;100.00;100052.88;4984685;28;20050;-72
2023/09/20 06:11:06;;;;;;;6.05;2.97;;;;;;;16.94;100.00;100042.66;4973259;28;20440;-73
2023/09/20 06:13:34;;;;;;;5.57;2.70;;;;;;;17.05;100.00;100042.66;4990166;28;20137;-72
2023/09/20 06:16:10;;;;;;;;;;;;;;;17.13;100.00;100048.28;4966814;28;20049;-81
2023/09/20 06:18:39;;;;;;;5.63;3.28;;;;;;;17.20;100.00;100045.94;4982763;28;20001;-73
2023/09/20 06:21:31;;;;;;;8.55;3.25;;;;;;;17.21;100.00;100052.16;4969926;28;20090;-71
2023/09/20 06:24:02;;;;;;;7.77;3.27;;;;;;;17.10;100.00;100051.19;4974374;28;20201;-71
2023/09/20 06:26:31;;;;;;;7.05;2.65;;;;;;;17.04;100.00;100054.34;4978962;28;20863;-72
2023/09/20 06:29:01;;;;;;;8.52;3.13;;;;;;;17.00;100.00;100065.41;4973391;28;20097;-73
2023/09/20 06:31:31;;;;;;;6.37;3.00;;;;;;;16.89;100.00;100060.88;4968864;28;20163;-72
2023/09/20 06:34:00;;;;;;;3.78;2.83;;;;;;;16.82;100.00;100063.22;4980457;28;20495;-74
2023/09/20 06:36:31;;;;;;;5.75;3.03;;;;;;;16.79;100.00;100062.59;4965534;28;20267;-72
2023/09/20 06:38:59;;;;;;;7.53;2.70;;;;;;;16.75;100.00;100063.78;4973827;28;20055;-71
2023/09/20 06:41:27;;;;;;;5.63;2.67;;;;;;;16.75;100.00;100067.31;4972381;28;20541;-71
2023/09/20 06:43:58;;;;;;;8.90;2.95;;;;;;;16.76;100.00;100066.34;4972049;28;20538;-78
2023/09/20 06:46:26;;;;;;;6.97;2.70;;;;;;;16.84;100.00;100063.91;4966712;28;20062;-74
2023/09/20 06:48:59;;;;;;;;;;;;;;;16.88;100.00;100056.50;4971540;28;20392;-74
2023/09/20 06:51:28;;;;;;;7.47;3.17;;;;;;;16.93;100.00;100065.03;4978909;28;19930;-71
2023/09/20 06:53:58;;;;;;;6.78;2.90;;;;;;;16.97;100.00;100066.50;4971240;28;20174;-72
2023/09/20 06:56:29;;;;;;;3.83;2.88;;;;;;;17.05;100.00;100064.06;4983880;28;20365;-72
2023/09/20 06:58:58;;;;;;;8.43;2.90;;;;;;;17.12;100.00;100062.63;4975248;28;20484;-74
2023/09/20 07:01:29;;;;;;;4.27;2.80;;;;;;;17.17;100.00;100065.75;4975580;28;20081;-72
2023/09/20 07:04:01;;;;;;;6.13;2.97;;;;;;;17.15;100.00;100058.84;5005431;28;20046;-73
2023/09/20 07:06:31;;;;;;;7.03;2.85;;;;;;;17.13;100.00;100040.25;4967251;28;20059;-72
2023/09/20 07:08:59;;;;;;;5.53;3.00;;;;;;;17.25;100.00;100049.13;4974919;28;20047;-71
2023/09/20 07:11:29;;;;;;;8.68;3.70;;;;;;;17.30;100.00;100057.63;4972865;28;20110;-71
2023/09/20 07:13:59;;;;;;;5.13;2.88;;;;;;;17.29;100.00;100050.56;4972163;28;20058;-72
2023/09/20 07:16:30;;;;;;;6.53;3.10;;;;;;;17.31;100.00;100055.81;4966661;28;20499;-72
2023/09/20 07:19:04;;;;;;;6.60;3.13;;;;;;;17.39;100.00;100056.03;4973597;28;20043;-73
2023/09/20 07:21:36;;;;;;;10.02;2.90;;;;;;;17.45;100.00;100050.19;4978116;28;20051;-75
2023/09/20 07:24:12;;;;;;;5.25;2.90;;;;;;;17.50;100.00;100053.31;4975844;28;20075;-82
2023/09/20 07:26:43;;;;;;;5.88;2.83;;;;;;;17.52;100.00;100049.56;4966680;28;20050;-72
2023/09/20 07:29:14;;;;;;;6.95;3.50;;;;;;;17.60;100.00;100046.28;4972860;28;20045;-77
2023/09/20 07:31:46;;;;;;;4.80;3.13;;;;;;;17.64;100.00;100039.69;4973961;28;20117;-73
2023/09/20 07:34:17;;;;;;;5.38;3.00;;;;;;;17.74;100.00;100051.38;4944539;28;20058;-72
2023/09/20 07:36:53;;;;;;;5.43;3.17;;;;;;;17.77;100.00;100042.25;4967798;28;20058;-74
2023/09/20 07:39:26;;;;;;;7.72;3.30;;;;;;;17.80;100.00;100033.94;4988503;28;20046;-72
2023/09/20 07:41:58;;;;;;;9.52;3.00;;;;;;;17.82;100.00;100034.66;4986072;28;20046;-71
2023/09/20 07:44:30;;;;;;;6.25;3.20;;;;;;;17.88;100.00;100042.19;4956815;28;20043;-71
2023/09/20 07:46:59;;;;;;;6.20;2.92;;;;;;;17.88;100.00;100043.06;4985127;28;20054;-74
2023/09/20 07:49:28;;;;;;;5.75;2.83;;;;;;;17.94;100.00;100041.69;4993670;28;20495;-71
2023/09/20 07:51:56;;;;;;;6.35;3.55;;;;;;;18.06;100.00;100039.81;4976155;28;20053;-71
2023/09/20 07:54:24;;;;;;;4.82;2.67;;;;;;;18.19;100.00;100027.09;4975173;28;20054;-71
2023/09/20 07:56:52;;;;;;;7.43;3.03;;;;;;;18.50;100.00;100034.22;4967989;28;20046;-71
2023/09/20 07:59:23;;;;;;;6.00;3.33;;;;;;;18.73;100.00;100045.69;4955449;28;20054;-76
2023/09/20 08:01:52;;;;;;;5.82;2.60;;;;;;;18.84;100.00;100042.09;4990260;28;20129;-72
2023/09/20 08:04:21;;;;;;;7.32;3.03;;;;;;;19.02;100.00;100053.06;4987264;28;20054;-73
2023/09/20 08:06:54;;;;;;;5.05;3.05;;;;;;;19.22;100.00;100046.75;4987698;28;20051;-73
2023/09/20 08:09:26;;;;;;;10.27;4.90;;;;;;;19.32;100.00;100042.28;4974180;28;20049;-72
2023/09/20 08:12:00;;;;;;;5.85;2.45;;;;;;;19.38;100.00;100049.78;4989016;28;20054;-72
2023/09/20 08:14:30;;;;;;;7.43;2.90;;;;;;;19.52;100.00;100038.69;4994761;28;20226;-79
2023/09/20 08:19:44;;;;;;;5.43;2.58;;;;;;;19.68;100.00;100022.03;4973030;28;20047;-76
2023/09/20 08:22:15;;;;;;;3.67;2.45;;;;;;;19.84;100.00;100027.72;4969629;28;20053;-78
2023/09/20 09:00:51;;;;;;;3.60;1.70;;;;;;;20.94;97.73;100014.72;4988834;28;20049;-76
2023/09/20 09:03:20;;;;;;;5.13;2.15;;;;;;;21.13;96.27;100013.78;4987138;28;20054;-76
2023/09/20 09:05:49;;;;;;;7.55;2.22;;;;;;;21.32;92.48;100019.13;4969039;28;20053;-78
2023/09/20 09:08:17;;;;;;;3.75;2.03;;;;;;;21.38;92.90;100009.59;4947740;28;20058;-78
2023/09/20 09:10:47;;;;;;;4.28;1.77;;;;;;;21.44;91.12;100004.44;4982907;28;20050;-79
2023/09/20 09:13:16;;;;;;;4.30;2.20;;;;;;;21.52;89.21;100011.78;4979308;28;20122;-77
2023/09/20 09:15:45;;;;;;;3.78;2.10;;;;;;;21.46;89.77;100015.06;4966877;28;20046;-75
2023/09/20 09:18:17;;;;;;;3.15;2.00;;;;;;;21.47;89.28;100003.31;4983266;28;20092;-75
2023/09/20 09:20:51;;;;;;;4.57;2.30;;;;;;;21.49;89.69;100001.31;5005565;28;20042;-75
2023/09/20 09:23:31;;;;;;;;;;;;;;;21.52;88.97;99998.31;4980860;28;20047;-74
2023/09/20 09:26:01;;;;;;;6.22;2.67;;;;;;;21.26;91.64;100011.63;5004007;28;19929;-73
2023/09/20 09:28:33;;;;;;;4.72;2.10;;;;;;;21.26;93.79;100006.25;4982585;28;20487;-73
2023/09/20 09:31:01;;;;;;;4.63;1.90;;;;;;;21.42;91.05;100003.75;4975801;28;20050;-73
2023/09/20 09:33:30;;;;;;;8.25;2.20;;;;;;;21.58;90.40;99998.53;4991334;28;20070;-73
2023/09/20 09:35:58;;;;;;;5.82;2.50;;;;;;;21.68;91.37;100001.19;4972185;28;20089;-74
2023/09/20 09:38:27;;;;;;;4.28;1.77;;;;;;;21.53;89.58;99992.78;4978802;28;20050;-74
2023/09/20 09:40:57;;;;;;;3.87;2.07;;;;;;;21.63;90.97;99990.88;4972299;28;20047;-74
2023/09/20 09:43:29;;;;;;;5.15;2.00;;;;;;;21.73;90.56;100001.56;4982736;28;20149;-73
2023/09/20 09:46:06;;;;;;;4.60;1.60;;;;;;;21.82;87.96;100006.06;4997665;28;20086;-74
2023/09/20 09:48:37;;;;;;;3.45;1.80;;;;;;;21.54;88.95;99999.88;5004479;28;20054;-75
2023/09/20 09:51:12;;;;;;;4.63;2.30;;;;;;;21.54;91.08;99985.56;4971787;28;20102;-73
2023/09/20 09:53:41;;;;;;;3.70;2.08;;;;;;;21.84;89.62;99998.66;4993932;28;20066;-74
2023/09/20 09:56:10;;;;;;;3.95;1.90;;;;;;;21.93;87.09;99965.38;4985995;28;20057;-74
2023/09/20 09:58:40;;;;;;;4.25;1.90;;;;;;;22.22;85.10;99966.97;4951616;28;20490;-72
2023/09/20 10:01:10;;;;;;;4.20;2.65;;;;;;;22.31;85.02;99966.91;4993907;28;20046;-73
2023/09/20 10:03:43;;;;;;;6.07;2.47;;;;;;;22.35;85.15;99968.25;4974654;28;20043;-74
2023/09/20 10:06:16;;;;;;;3.08;1.90;;;;;;;22.34;85.10;99954.97;4989507;28;20532;-74
2023/09/20 10:08:48;;;;;;;5.15;1.85;;;;;;;22.46;86.47;99959.09;4970113;28;20042;-74
2023/09/20 10:11:22;;;;;;;4.38;1.80;;;;;;;22.34;86.43;99954.97;4974001;28;20058;-74
2023/09/20 10:13:54;;;;;;;4.18;1.73;;;;;;;22.47;87.01;99951.84;4979703;28;20050;-74
2023/09/20 10:16:24;;;;;;;4.07;1.63;;;;;;;22.66;84.91;99941.69;4977012;28;20057;-74
2023/09/20 10:18:58;;;;;;;2.25;1.40;;;;;;;23.01;81.60;99939.81;4979484;28;20065;-76
2023/09/20 10:21:30;;;;;;;2.65;1.25;;;;;;;22.94;79.61;99922.59;4977879;28;20066;-74
2023/09/20 10:24:04;;;;;;;2.47;1.40;;;;;;;22.89;79.34;99936.56;4979687;28;20074;-74
2023/09/20 10:26:35;;;;;;;2.25;1.42;;;;;;;22.82;80.12;99932.00;4987780;28;20062;-74
2023/09/20 10:29:26;;;;;;;2.63;1.40;;;;;;;22.78;79.53;99931.47;4966109;28;20069;-74
2023/09/20 10:31:55;;;;;;;4.32;1.30;;;;;;;22.80;79.18;99928.63;4990406;28;20046;-73
2023/09/20 10:34:25;;;;;;;2.85;1.45;;;;;;;22.81;80.62;99941.09;4975307;28;20101;-74
2023/09/20 10:36:55;;;;;;;3.20;1.95;;;;;;;23.02;79.50;99938.81;4962899;28;20062;-73
2023/09/20 10:39:27;;;;;;;5.50;2.65;;;;;;;23.15;77.04;99928.38;4969129;28;20050;-73
2023/09/20 10:41:56;;;;;;;3.33;1.48;;;;;;;23.07;74.93;99940.03;4989008;28;20046;-73
2023/09/20 10:44:29;;;;;;;3.77;2.13;;;;;;;22.92;77.58;99933.56;4994715;28;20061;-75
2023/09/20 10:46:59;;;;;;;4.72;2.35;;;;;;;23.04;77.46;99942.19;4980163;28;20552;-74
2023/09/20 10:49:41;;;;;;;7.45;1.90;;;;;;;23.25;79.26;99937.22;4952864;28;20569;-74
2023/09/20 10:52:09;;;;;;;1.75;1.23;;;;;;;23.37;74.42;99926.94;4989890;28;20057;-73
2023/09/20 10:54:39;;;;;;;3.03;1.50;;;;;;;23.19;76.37;99924.38;4989149;28;20060;-74
2023/09/20 10:57:09;;;;;;;1.42;0.88;;;;;;;23.32;75.10;99932.84;4992439;28;20042;-73
2023/09/20 10:59:40;;;;;;;;;;;;;;;23.68;74.16;99925.34;4984988;28;20042;-74
2023/09/20 11:02:09;;;;;;;2.15;1.08;;;;;;;23.93;70.93;99919.94;4993435;28;19975;-74
2023/09/20 11:04:38;;;;;;;4.75;1.30;;;;;;;24.17;71.79;99919.09;5010435;28;20104;-74
2023/09/20 11:07:07;;;;;;;4.15;1.40;;;;;;;24.32;67.05;99926.38;4989121;28;20045;-73
2023/09/20 11:09:38;;;;;;;4.03;1.50;;;;;;;24.35;65.31;99915.22;4965782;28;20042;-74
2023/09/20 11:12:08;;;;;;;3.38;1.30;;;;;;;24.29;64.70;99906.91;4994069;28;20050;-74
2023/09/20 11:14:40;;;;;;;3.53;1.40;;;;;;;24.00;68.78;99911.00;4996012;28;20049;-75
2023/09/20 11:17:13;;;;;;;3.42;1.70;;;;;;;23.97;68.40;99897.81;4989688;28;20042;-74
2023/09/20 11:19:42;;;;;;;6.63;4.55;;;;;;;24.10;68.00;99898.13;4980199;28;20514;-74
2023/09/20 11:22:09;;;;;;;2.90;1.45;;;;;;;23.92;66.57;99896.63;4994533;28;20038;-74
2023/09/20 11:24:43;;;;;;;1.92;1.23;;;;;;;23.42;71.10;99886.78;4985874;28;20046;-73
2023/09/20 11:27:13;;;;;;;6.47;1.50;;;;;;;23.56;70.84;99899.66;4984242;28;20034;-74
2023/09/20 11:29:44;;;;;;;4.35;1.48;;;;;;;23.71;70.87;99899.84;4970405;28;20069;-73
2023/09/20 11:32:14;;;;;;;4.45;1.40;;;;;;;23.92;69.51;99888.53;4992188;28;20054;-73
2023/09/20 11:34:43;;;;;;;3.00;1.35;;;;;;;23.92;68.54;99873.16;4999474;28;20050;-73
2023/09/20 11:37:14;;;;;;;;;;;;;;;24.25;68.91;99892.03;4986876;28;20063;-75
2023/09/20 11:39:44;;;;;;;4.78;1.45;;;;;;;24.33;66.82;99881.22;4978960;28;19922;-75
2023/09/20 11:42:24;;;;;;;3.10;1.10;;;;;;;24.46;65.63;99885.06;5007095;28;20042;-72
2023/09/20 11:44:58;;;;;;;3.50;1.30;;;;;;;24.50;64.40;99880.16;4995889;28;20125;-72
2023/09/20 11:47:44;;;;;;;3.53;1.10;;;;;;;24.23;64.51;99861.59;4987798;28;20050;-74
2023/09/20 11:50:13;;;;;;;1.63;1.13;;;;;;;23.80;66.85;99858.25;4999078;28;20432;-75
2023/09/20 11:52:45;;;;;;;4.03;2.00;;;;;;;23.93;67.95;99866.69;4993610;28;20036;-74
2023/09/20 11:55:14;;;;;;;2.15;1.10;;;;;;;24.13;66.31;99859.91;4991128;28;20073;-73
2023/09/20 11:57:42;;;;;;;3.15;1.38;;;;;;;24.17;66.74;99860.41;4962230;28;20050;-72
2023/09/20 12:00:17;;;;;;;2.08;0.90;;;;;;;24.34;67.00;99859.41;4967615;28;20073;-75
2023/09/20 12:02:47;;;;;;;3.28;1.50;;;;;;;24.64;65.93;99846.94;5003974;28;20116;-75
2023/09/20 12:05:18;;;;;;;2.15;1.20;;;;;;;24.85;61.55;99827.38;4983484;28;20077;-75
2023/09/20 12:07:58;;;;;;;2.92;1.23;;;;;;;25.17;60.36;99842.66;5002631;28;20077;-72
2023/09/20 12:10:27;;;;;;;2.65;1.40;;;;;;;25.17;59.66;99824.53;4973865;28;20048;-74
2023/09/20 12:12:56;;;;;;;1.60;1.20;;;;;;;25.30;57.33;99826.63;4980309;28;20585;-75
2023/09/20 12:15:26;;;;;;;3.25;1.20;;;;;;;25.32;57.56;99831.88;4975886;28;20050;-75